createdAt,value
2023-05-24T00:00:47.434Z,10.37
2023-05-24T00:01:44.007Z,10.29
2023-05-24T00:02:43.587Z,10.30
2023-05-24T00:03:40.452Z,10.19
2023-05-24T00:04:37.199Z,10.17
2023-05-24T00:05:37.746Z,10.22
2023-05-24T00:06:37.491Z,10.11
2023-05-24T00:07:34.013Z,10.09
2023-05-24T00:08:30.542Z,10.00
2023-05-24T00:09:27.063Z,9.87
2023-05-24T00:10:23.629Z,9.23
2023-05-24T00:11:21.058Z,9.84
2023-05-24T00:12:17.669Z,9.92
2023-05-24T00:13:15.605Z,9.92
2023-05-24T00:14:12.143Z,9.91
2023-05-24T00:15:09.029Z,9.88
2023-05-24T00:16:05.798Z,9.92
2023-05-24T00:17:02.401Z,9.98
2023-05-24T00:17:59.122Z,10.06
2023-05-24T00:18:59.328Z,9.93
2023-05-24T00:19:56.636Z,9.96
2023-05-24T00:20:53.403Z,9.84
2023-05-24T00:21:50.098Z,9.74
2023-05-24T00:22:47.090Z,9.83
2023-05-24T00:23:44.166Z,10.02
2023-05-24T00:24:40.724Z,10.16
2023-05-24T00:25:37.267Z,10.17
2023-05-24T00:26:33.761Z,10.11
2023-05-24T00:27:30.381Z,10.05
2023-05-24T00:28:27.088Z,10.09
2023-05-24T00:29:23.563Z,10.14
2023-05-24T00:30:20.045Z,10.12
2023-05-24T00:31:16.747Z,10.15
2023-05-24T00:32:13.590Z,10.15
2023-05-24T00:33:10.240Z,10.15
2023-05-24T00:34:07.763Z,10.09
2023-05-24T00:35:04.466Z,9.93
2023-05-24T00:36:01.109Z,9.89
2023-05-24T00:36:58.720Z,9.93
2023-05-24T00:37:55.207Z,9.86
2023-05-24T00:38:52.887Z,9.85
2023-05-24T00:39:49.474Z,9.81
2023-05-24T00:40:46.012Z,9.79
2023-05-24T00:41:42.576Z,9.75
2023-05-24T00:42:39.132Z,9.77
2023-05-24T00:43:37.175Z,9.74
2023-05-24T00:44:33.683Z,9.76
2023-05-24T00:45:32.400Z,9.80
2023-05-24T00:46:33.354Z,9.89
2023-05-24T00:47:30.172Z,9.96
2023-05-24T00:48:28.875Z,9.86
2023-05-24T00:49:26.491Z,9.76
2023-05-24T00:50:23.400Z,9.71
2023-05-24T00:51:20.057Z,9.67
2023-05-24T00:52:17.073Z,9.64
2023-05-24T00:53:13.690Z,9.58
2023-05-24T00:54:10.659Z,9.61
2023-05-24T00:55:07.554Z,9.65
2023-05-24T00:56:04.406Z,9.72
2023-05-24T00:57:00.986Z,9.85
2023-05-24T00:57:57.923Z,9.88
2023-05-24T00:58:57.140Z,9.90
2023-05-24T00:59:53.662Z,9.97
2023-05-24T01:00:51.111Z,9.90
2023-05-24T01:01:47.656Z,9.87
2023-05-24T01:02:44.293Z,9.87
2023-05-24T01:03:41.823Z,10.03
2023-05-24T01:04:38.499Z,10.07
2023-05-24T01:05:34.967Z,9.96
2023-05-24T01:06:36.376Z,9.92
2023-05-24T01:07:57.344Z,9.89
2023-05-24T01:08:56.431Z,10.02
2023-05-24T01:09:56.762Z,10.04
2023-05-24T01:11:19.528Z,9.83
2023-05-24T01:12:22.160Z,9.74
2023-05-24T01:13:29.808Z,9.68
2023-05-24T01:14:29.433Z,9.77
2023-05-24T01:15:41.011Z,9.88
2023-05-24T01:16:52.048Z,9.94
2023-05-24T01:17:55.878Z,9.85
2023-05-24T01:19:02.559Z,9.91
2023-05-24T01:20:02.319Z,9.83
2023-05-24T01:21:06.635Z,9.75
2023-05-24T01:22:06.641Z,9.85
2023-05-24T01:23:19.050Z,9.98
2023-05-24T01:24:25.489Z,9.82
2023-05-24T01:25:39.122Z,9.71
2023-05-24T01:26:54.633Z,9.68
2023-05-24T01:27:51.398Z,9.71
2023-05-24T01:28:48.387Z,9.83
2023-05-24T01:29:44.928Z,9.95
2023-05-24T01:30:42.267Z,9.86
2023-05-24T01:31:39.047Z,9.95
2023-05-24T01:32:35.905Z,9.87
2023-05-24T01:33:32.788Z,9.92
2023-05-24T01:34:29.963Z,9.97
2023-05-24T01:35:26.480Z,10.01
2023-05-24T01:36:23.138Z,9.77
2023-05-24T01:37:19.885Z,9.78
2023-05-24T01:38:16.433Z,9.96
2023-05-24T01:39:13.481Z,9.95
2023-05-24T01:40:11.142Z,10.02
2023-05-24T01:41:16.170Z,10.02
2023-05-24T01:42:26.717Z,10.16
2023-05-24T01:43:29.372Z,10.09
2023-05-24T01:44:29.532Z,10.15
2023-05-24T01:45:31.157Z,10.14
2023-05-24T01:46:37.732Z,9.99
2023-05-24T01:47:52.598Z,10.05
2023-05-24T01:48:49.116Z,10.05
2023-05-24T01:49:49.794Z,10.16
2023-05-24T01:50:52.493Z,9.95
2023-05-24T01:51:54.909Z,9.90
2023-05-24T01:52:52.456Z,9.79
2023-05-24T01:53:50.910Z,9.66
2023-05-24T01:54:50.546Z,9.49
2023-05-24T01:55:48.779Z,9.57
2023-05-24T01:56:47.868Z,9.60
2023-05-24T01:57:46.288Z,9.73
2023-05-24T01:58:45.662Z,9.76
2023-05-24T01:59:43.125Z,9.76
2023-05-24T02:00:40.824Z,9.73
2023-05-24T02:01:37.874Z,9.76
2023-05-24T02:02:34.716Z,9.72
2023-05-24T02:03:31.447Z,9.70
2023-05-24T02:04:28.091Z,9.66
2023-05-24T02:05:24.833Z,9.59
2023-05-24T02:06:21.307Z,9.77
2023-05-24T02:07:17.833Z,9.77
2023-05-24T02:08:14.591Z,9.81
2023-05-24T02:09:11.174Z,9.65
2023-05-24T02:10:07.926Z,9.70
2023-05-24T02:11:04.497Z,9.74
2023-05-24T02:12:01.065Z,9.67
2023-05-24T02:12:59.602Z,9.58
2023-05-24T02:13:56.191Z,9.47
2023-05-24T02:14:54.663Z,9.43
2023-05-24T02:15:53.756Z,9.36
2023-05-24T02:16:50.813Z,9.36
2023-05-24T02:17:48.249Z,9.39
2023-05-24T02:18:46.823Z,9.35
2023-05-24T02:19:43.660Z,9.38
2023-05-24T02:20:40.840Z,9.40
2023-05-24T02:21:37.900Z,9.38
2023-05-24T02:22:34.487Z,9.58
2023-05-24T02:23:31.665Z,9.57
2023-05-24T02:24:28.253Z,9.49
2023-05-24T02:25:24.734Z,9.48
2023-05-24T02:26:21.238Z,9.31
2023-05-24T02:27:17.764Z,9.26
2023-05-24T02:28:14.299Z,9.27
2023-05-24T02:29:11.327Z,9.24
2023-05-24T02:30:08.290Z,9.22
2023-05-24T02:31:05.019Z,9.13
2023-05-24T02:32:01.855Z,9.20
2023-05-24T02:32:58.460Z,9.70
2023-05-24T02:33:58.560Z,9.93
2023-05-24T02:34:55.016Z,9.96
2023-05-24T02:35:51.722Z,9.66
2023-05-24T02:36:48.217Z,9.31
2023-05-24T02:37:44.766Z,9.26
2023-05-24T02:38:41.440Z,9.13
2023-05-24T02:39:37.940Z,9.07
2023-05-24T02:40:34.789Z,9.20
2023-05-24T02:41:31.326Z,9.18
2023-05-24T02:42:27.829Z,9.13
2023-05-24T02:43:24.368Z,9.12
2023-05-24T02:44:20.880Z,9.07
2023-05-24T02:45:17.424Z,9.02
2023-05-24T02:46:14.432Z,9.02
2023-05-24T02:47:10.924Z,8.94
2023-05-24T02:48:07.443Z,8.90
2023-05-24T02:49:05.169Z,8.87
2023-05-24T02:50:01.689Z,8.87
2023-05-24T02:50:58.214Z,8.83
2023-05-24T02:51:54.806Z,8.86
2023-05-24T02:52:51.781Z,8.83
2023-05-24T02:53:48.357Z,8.84
2023-05-24T02:54:44.938Z,8.85
2023-05-24T02:55:44.045Z,8.80
2023-05-24T02:56:41.054Z,8.90
2023-05-24T02:57:37.936Z,8.86
2023-05-24T02:58:35.096Z,8.98
2023-05-24T02:59:32.317Z,9.09
2023-05-24T03:00:28.957Z,9.00
2023-05-24T03:01:25.573Z,9.04
2023-05-24T03:02:22.424Z,9.07
2023-05-24T03:03:19.065Z,9.07
2023-05-24T03:04:15.766Z,9.20
2023-05-24T03:05:12.273Z,9.15
2023-05-24T03:06:08.855Z,9.07
2023-05-24T03:07:05.393Z,9.01
2023-05-24T03:08:01.961Z,9.03
2023-05-24T03:08:59.365Z,8.96
2023-05-24T03:09:55.929Z,9.11
2023-05-24T03:10:52.493Z,9.19
2023-05-24T03:11:48.991Z,9.30
2023-05-24T03:12:45.743Z,9.36
2023-05-24T03:13:42.566Z,9.34
2023-05-24T03:14:39.106Z,9.31
2023-05-24T03:15:35.677Z,9.47
2023-05-24T03:16:33.134Z,9.54
2023-05-24T03:17:29.686Z,9.39
2023-05-24T03:18:26.401Z,9.26
2023-05-24T03:19:22.949Z,9.24
2023-05-24T03:20:21.213Z,9.23
2023-05-24T03:21:20.751Z,9.39
2023-05-24T03:22:17.527Z,9.42
2023-05-24T03:23:15.045Z,9.29
2023-05-24T03:24:13.235Z,9.36
2023-05-24T03:25:09.875Z,9.33
2023-05-24T03:26:07.453Z,9.31
2023-05-24T03:27:04.662Z,9.26
2023-05-24T03:28:02.697Z,9.36
2023-05-24T03:28:59.243Z,9.32
2023-05-24T03:29:55.795Z,9.35
2023-05-24T03:30:52.330Z,9.49
2023-05-24T03:31:48.907Z,9.52
2023-05-24T03:32:45.470Z,9.51
2023-05-24T03:33:41.978Z,9.49
2023-05-24T03:34:38.460Z,9.47
2023-05-24T03:35:34.957Z,9.51
2023-05-24T03:36:32.842Z,9.54
2023-05-24T03:37:29.371Z,9.61
2023-05-24T03:38:26.019Z,9.72
2023-05-24T03:39:22.566Z,9.86
2023-05-24T03:40:19.258Z,9.88
2023-05-24T03:41:16.309Z,9.92
2023-05-24T03:42:12.938Z,9.90
2023-05-24T03:43:09.537Z,9.85
2023-05-24T03:44:06.083Z,9.33
2023-05-24T03:45:02.599Z,10.20
2023-05-24T03:45:59.220Z,10.21
2023-05-24T03:46:55.786Z,10.19
2023-05-24T03:47:52.370Z,10.41
2023-05-24T03:48:49.685Z,10.32
2023-05-24T03:49:46.266Z,10.35
2023-05-24T03:50:43.006Z,10.29
2023-05-24T03:51:39.686Z,10.24
2023-05-24T03:52:36.243Z,10.24
2023-05-24T03:53:32.826Z,10.15
2023-05-24T03:54:29.474Z,10.19
2023-05-24T03:55:26.111Z,10.15
2023-05-24T03:56:22.780Z,10.13
2023-05-24T03:57:19.257Z,10.07
2023-05-24T03:58:15.842Z,10.13
2023-05-24T03:59:12.382Z,9.98
2023-05-24T04:00:10.033Z,9.89
2023-05-24T04:01:06.828Z,10.06
2023-05-24T04:02:03.661Z,10.07
2023-05-24T04:03:01.819Z,10.07
2023-05-24T04:03:58.638Z,10.10
2023-05-24T04:04:55.813Z,10.15
2023-05-24T04:05:52.324Z,10.17
2023-05-24T04:06:49.779Z,10.17
2023-05-24T04:07:46.609Z,10.18
2023-05-24T04:08:43.206Z,10.14
2023-05-24T04:09:40.420Z,10.15
2023-05-24T04:10:36.925Z,10.21
2023-05-24T04:11:33.591Z,10.29
2023-05-24T04:12:30.170Z,10.31
2023-05-24T04:13:26.682Z,10.37
2023-05-24T04:14:23.276Z,10.48
2023-05-24T04:15:19.823Z,10.58
2023-05-24T04:16:16.346Z,10.63
2023-05-24T04:17:13.138Z,10.68
2023-05-24T04:18:10.239Z,10.71
2023-05-24T04:19:07.244Z,10.68
2023-05-24T04:20:05.679Z,10.63
2023-05-24T04:21:02.224Z,10.60
2023-05-24T04:21:58.784Z,10.64
2023-05-24T04:22:56.354Z,10.64
2023-05-24T04:23:53.223Z,10.64
2023-05-24T04:24:49.819Z,10.65
2023-05-24T04:25:46.361Z,10.59
2023-05-24T04:26:42.838Z,10.62
2023-05-24T04:27:40.014Z,10.71
2023-05-24T04:28:38.210Z,10.71
2023-05-24T04:29:34.838Z,10.73
2023-05-24T04:30:31.726Z,10.83
2023-05-24T04:31:30.367Z,10.95
2023-05-24T04:32:30.530Z,10.93
2023-05-24T04:33:27.787Z,10.94
2023-05-24T04:34:24.486Z,10.88
2023-05-24T04:35:21.286Z,10.96
2023-05-24T04:36:17.936Z,11.02
2023-05-24T04:37:17.292Z,11.08
2023-05-24T04:38:14.367Z,11.05
2023-05-24T04:39:11.623Z,11.06
2023-05-24T04:40:08.719Z,11.09
2023-05-24T04:41:08.375Z,11.17
2023-05-24T04:42:05.090Z,11.18
2023-05-24T04:43:01.659Z,11.19
2023-05-24T04:43:59.945Z,11.34
2023-05-24T04:44:56.440Z,11.37
2023-05-24T04:45:56.305Z,11.48
2023-05-24T04:46:53.475Z,11.57
2023-05-24T04:47:50.096Z,11.55
2023-05-24T04:48:46.829Z,11.63
2023-05-24T04:49:43.456Z,11.60
2023-05-24T04:50:40.351Z,11.63
2023-05-24T04:51:38.770Z,11.75
2023-05-24T04:52:36.534Z,11.79
2023-05-24T04:53:33.253Z,11.98
2023-05-24T04:54:29.871Z,12.04
2023-05-24T04:55:26.503Z,12.30
2023-05-24T04:56:23.247Z,12.37
2023-05-24T04:57:19.890Z,12.25
2023-05-24T04:58:17.092Z,12.21
2023-05-24T04:59:13.711Z,12.08
2023-05-24T05:00:10.574Z,12.03
2023-05-24T05:01:07.498Z,12.13
2023-05-24T05:02:04.046Z,12.16
2023-05-24T05:03:00.717Z,12.27
2023-05-24T05:03:57.408Z,12.24
2023-05-24T05:04:53.950Z,12.26
2023-05-24T05:05:50.517Z,12.51
2023-05-24T05:06:48.353Z,12.77
2023-05-24T05:07:45.472Z,12.85
2023-05-24T05:08:42.016Z,12.25
2023-05-24T05:09:38.483Z,12.63
2023-05-24T05:10:35.922Z,12.62
2023-05-24T05:11:32.559Z,12.75
2023-05-24T05:12:29.165Z,12.78
2023-05-24T05:13:25.730Z,12.86
2023-05-24T05:14:22.278Z,12.93
2023-05-24T05:15:18.941Z,12.97
2023-05-24T05:16:15.547Z,13.03
2023-05-24T05:17:12.056Z,13.09
2023-05-24T05:18:08.630Z,13.36
2023-05-24T05:19:05.897Z,13.52
2023-05-24T05:20:03.777Z,13.79
2023-05-24T05:21:00.353Z,13.76
2023-05-24T05:21:56.850Z,13.72
2023-05-24T05:22:53.474Z,13.68
2023-05-24T05:23:50.139Z,13.57
2023-05-24T05:24:46.799Z,13.52
2023-05-24T05:25:43.354Z,13.51
2023-05-24T05:26:39.976Z,13.55
2023-05-24T05:27:36.726Z,13.76
2023-05-24T05:28:33.443Z,14.05
2023-05-24T05:29:29.998Z,13.94
2023-05-24T05:30:26.510Z,13.77
2023-05-24T05:31:23.421Z,13.68
2023-05-24T05:32:20.204Z,13.65
2023-05-24T05:33:16.704Z,13.66
2023-05-24T05:34:13.337Z,13.80
2023-05-24T05:35:09.984Z,13.81
2023-05-24T05:36:06.703Z,13.90
2023-05-24T05:37:03.349Z,13.82
2023-05-24T05:37:59.886Z,13.80
2023-05-24T05:38:56.392Z,13.90
2023-05-24T05:39:52.895Z,13.88
2023-05-24T05:40:49.518Z,13.85
2023-05-24T05:41:46.492Z,13.99
2023-05-24T05:42:43.361Z,13.99
2023-05-24T05:43:39.942Z,13.90
2023-05-24T05:44:36.570Z,13.99
2023-05-24T05:45:33.061Z,14.04
2023-05-24T05:46:29.655Z,13.96
2023-05-24T05:47:26.276Z,14.05
2023-05-24T05:48:22.924Z,14.07
2023-05-24T05:49:19.859Z,14.21
2023-05-24T05:50:16.406Z,14.49
2023-05-24T05:51:13.151Z,14.46
2023-05-24T05:52:09.739Z,14.44
2023-05-24T05:53:06.248Z,14.52
2023-05-24T05:54:02.829Z,14.48
2023-05-24T05:55:00.351Z,14.43
2023-05-24T05:55:56.888Z,14.48
2023-05-24T05:56:53.416Z,14.43
2023-05-24T05:57:49.960Z,14.60
2023-05-24T05:58:46.567Z,14.98
2023-05-24T05:59:43.192Z,15.10
2023-05-24T06:00:40.494Z,15.02
2023-05-24T06:01:37.138Z,15.10
2023-05-24T06:02:33.819Z,15.25
2023-05-24T06:03:30.639Z,15.53
2023-05-24T06:04:27.353Z,15.31
2023-05-24T06:05:23.950Z,15.39
2023-05-24T06:06:20.469Z,15.53
2023-05-24T06:07:16.952Z,15.45
2023-05-24T06:08:13.488Z,15.40
2023-05-24T06:09:10.070Z,15.35
2023-05-24T06:10:06.995Z,15.38
2023-05-24T06:11:03.633Z,15.08
2023-05-24T06:12:00.184Z,15.42
2023-05-24T06:12:56.673Z,15.46
2023-05-24T06:13:53.545Z,15.41
2023-05-24T06:14:50.740Z,15.60
2023-05-24T06:15:47.593Z,15.74
2023-05-24T06:16:46.064Z,15.81
2023-05-24T06:17:43.981Z,15.97
2023-05-24T06:18:47.435Z,16.05
2023-05-24T06:19:54.093Z,15.89
2023-05-24T06:20:50.680Z,15.70
2023-05-24T06:21:50.877Z,15.48
2023-05-24T06:22:49.732Z,15.35
2023-05-24T06:23:46.233Z,15.60
2023-05-24T06:24:43.882Z,15.67
2023-05-24T06:25:40.584Z,15.71
2023-05-24T06:26:37.648Z,15.54
2023-05-24T06:27:34.307Z,15.51
2023-05-24T06:28:30.999Z,15.50
2023-05-24T06:29:27.736Z,15.48
2023-05-24T06:30:24.424Z,15.50
2023-05-24T06:31:21.425Z,15.87
2023-05-24T06:32:18.145Z,15.83
2023-05-24T06:33:14.920Z,16.33
2023-05-24T06:34:11.411Z,16.27
2023-05-24T06:35:08.302Z,16.21
2023-05-24T06:36:05.032Z,16.07
2023-05-24T06:37:02.617Z,16.10
2023-05-24T06:37:59.292Z,15.96
2023-05-24T06:38:55.890Z,16.05
2023-05-24T06:39:52.455Z,16.04
2023-05-24T06:40:49.251Z,16.23
2023-05-24T06:41:47.022Z,16.33
2023-05-24T06:42:43.657Z,16.09
2023-05-24T06:43:40.522Z,15.79
2023-05-24T06:44:37.134Z,16.06
2023-05-24T06:45:33.706Z,16.22
2023-05-24T06:46:30.631Z,16.64
2023-05-24T06:47:27.309Z,16.42
2023-05-24T06:48:24.030Z,16.17
2023-05-24T06:49:21.187Z,16.53
2023-05-24T06:50:18.651Z,16.74
2023-05-24T06:51:15.224Z,16.97
2023-05-24T06:52:11.826Z,17.43
2023-05-24T06:53:08.801Z,17.13
2023-05-24T06:54:05.817Z,17.25
2023-05-24T06:55:02.328Z,17.57
2023-05-24T06:55:58.977Z,17.12
2023-05-24T06:56:55.973Z,17.46
2023-05-24T06:57:52.493Z,17.61
2023-05-24T06:58:48.982Z,17.41
2023-05-24T06:59:45.555Z,17.56
2023-05-24T07:00:43.002Z,17.40
2023-05-24T07:01:40.204Z,17.48
2023-05-24T07:02:36.881Z,17.42
2023-05-24T07:03:33.459Z,17.39
2023-05-24T07:04:30.105Z,17.27
2023-05-24T07:05:26.729Z,17.43
2023-05-24T07:06:23.341Z,17.65
2023-05-24T07:07:20.750Z,18.23
2023-05-24T07:08:17.238Z,17.88
2023-05-24T07:09:14.341Z,17.99
2023-05-24T07:10:11.942Z,17.66
2023-05-24T07:11:09.727Z,17.83
2023-05-24T07:12:08.865Z,18.10
2023-05-24T07:13:05.858Z,18.00
2023-05-24T07:14:02.452Z,18.05
2023-05-24T07:14:58.990Z,18.27
2023-05-24T07:15:55.757Z,18.22
2023-05-24T07:16:52.420Z,18.23
2023-05-24T07:17:49.044Z,18.43
2023-05-24T07:18:46.214Z,18.35
2023-05-24T07:19:42.869Z,18.17
2023-05-24T07:20:39.550Z,18.15
2023-05-24T07:21:37.621Z,18.15
2023-05-24T07:22:34.283Z,18.54
2023-05-24T07:23:31.236Z,18.66
2023-05-24T07:24:27.896Z,18.74
2023-05-24T07:25:24.841Z,18.99
2023-05-24T07:26:21.974Z,18.68
2023-05-24T07:27:18.494Z,18.81
2023-05-24T07:28:15.440Z,18.62
2023-05-24T07:29:12.142Z,18.60
2023-05-24T07:30:19.660Z,18.55
2023-05-24T07:31:26.647Z,18.62
2023-05-24T07:32:23.306Z,18.85
2023-05-24T07:33:19.878Z,18.68
2023-05-24T07:34:16.502Z,18.60
2023-05-24T07:35:13.732Z,18.98
2023-05-24T07:36:10.747Z,18.92
2023-05-24T07:37:07.539Z,19.13
2023-05-24T07:38:04.046Z,19.47
2023-05-24T07:39:01.488Z,19.24
2023-05-24T07:39:58.089Z,19.31
2023-05-24T07:40:54.873Z,19.02
2023-05-24T07:41:51.478Z,19.40
2023-05-24T07:42:48.143Z,19.54
2023-05-24T07:43:44.644Z,19.05
2023-05-24T07:44:41.411Z,18.95
2023-05-24T07:45:37.916Z,19.10
2023-05-24T07:46:35.346Z,19.15
2023-05-24T07:47:32.114Z,18.89
2023-05-24T07:48:28.768Z,19.13
2023-05-24T07:49:25.358Z,19.39
2023-05-24T07:50:22.000Z,19.11
2023-05-24T07:51:18.637Z,18.87
2023-05-24T07:52:15.465Z,18.42
2023-05-24T07:53:12.001Z,19.23
2023-05-24T07:54:08.515Z,18.96
2023-05-24T07:55:06.255Z,19.17
2023-05-24T07:56:02.905Z,19.03
2023-05-24T07:56:59.563Z,19.84
2023-05-24T07:57:56.834Z,19.62
2023-05-24T07:58:56.929Z,19.60
2023-05-24T07:59:53.442Z,19.54
2023-05-24T08:00:50.078Z,19.44
2023-05-24T08:01:47.866Z,19.42
2023-05-24T08:02:46.482Z,19.85
2023-05-24T08:03:43.687Z,19.65
2023-05-24T08:04:40.340Z,19.93
2023-05-24T08:05:36.904Z,20.06
2023-05-24T08:06:33.473Z,20.25
2023-05-24T08:07:30.177Z,20.16
2023-05-24T08:08:26.843Z,19.49
2023-05-24T08:09:23.561Z,19.27
2023-05-24T08:10:20.179Z,19.87
2023-05-24T08:11:17.070Z,20.00
2023-05-24T08:12:15.586Z,19.86
2023-05-24T08:13:13.615Z,19.95
2023-05-24T08:14:10.166Z,20.06
2023-05-24T08:15:07.345Z,20.07
2023-05-24T08:16:03.998Z,19.93
2023-05-24T08:17:03.570Z,20.12
2023-05-24T08:18:00.191Z,19.70
2023-05-24T08:18:56.968Z,19.71
2023-05-24T08:19:53.560Z,19.95
2023-05-24T08:20:50.184Z,19.81
2023-05-24T08:21:46.865Z,19.74
2023-05-24T08:22:43.725Z,19.60
2023-05-24T08:23:40.797Z,20.42
2023-05-24T08:24:37.291Z,20.98
2023-05-24T08:25:33.867Z,20.42
2023-05-24T08:26:30.410Z,20.59
2023-05-24T08:27:28.915Z,21.22
2023-05-24T08:28:26.312Z,20.93
2023-05-24T08:29:22.904Z,20.87
2023-05-24T08:30:20.085Z,20.64
2023-05-24T08:31:17.085Z,20.43
2023-05-24T08:32:14.251Z,20.96
2023-05-24T08:33:11.035Z,21.06
2023-05-24T08:34:07.615Z,20.42
2023-05-24T08:35:19.220Z,20.39
2023-05-24T08:36:17.489Z,20.57
2023-05-24T08:37:16.274Z,20.86
2023-05-24T08:38:12.935Z,20.48
2023-05-24T08:39:09.750Z,20.51
2023-05-24T08:40:09.776Z,20.71
2023-05-24T08:41:08.444Z,21.19
2023-05-24T08:42:09.449Z,21.57
2023-05-24T08:43:11.955Z,22.04
2023-05-24T08:44:08.562Z,21.91
2023-05-24T08:45:09.374Z,22.09
2023-05-24T08:46:07.261Z,21.77
2023-05-24T08:47:04.244Z,21.04
2023-05-24T08:48:02.007Z,21.75
2023-05-24T08:48:59.012Z,21.46
2023-05-24T08:49:55.691Z,21.02
2023-05-24T08:50:52.274Z,21.27
2023-05-24T08:51:49.798Z,21.32
2023-05-24T08:52:46.435Z,21.37
2023-05-24T08:53:48.567Z,21.56
2023-05-24T08:54:45.838Z,21.47
2023-05-24T08:55:44.064Z,22.04
2023-05-24T08:56:41.456Z,22.11
2023-05-24T08:57:40.004Z,22.12
2023-05-24T08:58:38.724Z,22.12
2023-05-24T08:59:35.322Z,22.08
2023-05-24T09:00:32.109Z,22.22
2023-05-24T09:01:31.417Z,22.46
2023-05-24T09:02:30.191Z,22.86
2023-05-24T09:03:27.107Z,22.64
2023-05-24T09:04:24.410Z,23.05
2023-05-24T09:05:23.955Z,23.34
2023-05-24T09:06:20.929Z,23.04
2023-05-24T09:07:23.663Z,22.80
2023-05-24T09:08:20.634Z,22.44
2023-05-24T09:09:18.399Z,22.79
2023-05-24T09:10:15.165Z,22.97
2023-05-24T09:11:11.943Z,23.07
2023-05-24T09:12:08.819Z,22.33
2023-05-24T09:13:06.414Z,22.17
2023-05-24T09:14:02.960Z,22.13
2023-05-24T09:14:59.544Z,21.87
2023-05-24T09:15:56.175Z,22.91
2023-05-24T09:16:53.216Z,22.57
2023-05-24T09:17:49.801Z,22.25
2023-05-24T09:18:46.417Z,22.61
2023-05-24T09:19:45.184Z,22.58
2023-05-24T09:20:42.265Z,22.63
2023-05-24T09:21:39.094Z,23.31
2023-05-24T09:22:40.676Z,23.65
2023-05-24T09:23:37.732Z,23.44
2023-05-24T09:24:40.613Z,23.47
2023-05-24T09:25:37.253Z,23.30
2023-05-24T09:26:36.133Z,23.53
2023-05-24T09:27:34.529Z,23.71
2023-05-24T09:28:32.555Z,23.73
2023-05-24T09:29:29.210Z,23.63
2023-05-24T09:30:25.937Z,24.06
2023-05-24T09:31:32.217Z,23.14
2023-05-24T09:32:29.156Z,23.45
2023-05-24T09:33:29.128Z,23.28
2023-05-24T09:34:25.687Z,23.89
2023-05-24T09:35:22.318Z,23.68
2023-05-24T09:36:18.910Z,23.48
2023-05-24T09:37:19.511Z,23.50
2023-05-24T09:38:19.598Z,23.19
2023-05-24T09:39:21.021Z,23.95
2023-05-24T09:40:19.060Z,23.39
2023-05-24T09:41:15.835Z,23.37
2023-05-24T09:42:17.623Z,22.50
2023-05-24T09:43:14.140Z,23.30
2023-05-24T09:44:13.296Z,23.02
2023-05-24T09:45:10.768Z,23.64
2023-05-24T09:46:07.289Z,23.39
2023-05-24T09:47:06.958Z,23.05
2023-05-24T09:48:03.974Z,23.45
2023-05-24T09:49:03.671Z,24.22
2023-05-24T09:50:00.963Z,23.55
2023-05-24T09:51:04.246Z,23.70
2023-05-24T09:52:01.779Z,23.87
2023-05-24T09:52:58.337Z,24.11
2023-05-24T09:54:00.887Z,24.16
2023-05-24T09:54:57.569Z,24.03
2023-05-24T09:55:55.102Z,23.40
2023-05-24T09:56:51.718Z,23.25
2023-05-24T09:57:53.133Z,23.15
2023-05-24T09:58:49.763Z,23.04
2023-05-24T09:59:46.720Z,22.49
2023-05-24T10:00:43.770Z,23.06
2023-05-24T10:01:40.909Z,23.32
2023-05-24T10:02:51.483Z,23.72
2023-05-24T10:03:58.457Z,23.60
2023-05-24T10:05:00.675Z,23.21
2023-05-24T10:05:58.221Z,23.23
2023-05-24T10:06:58.745Z,23.17
2023-05-24T10:07:59.771Z,22.68
2023-05-24T10:08:57.196Z,23.03
2023-05-24T10:09:53.878Z,23.18
2023-05-24T10:10:50.751Z,23.10
2023-05-24T10:11:47.460Z,23.13
2023-05-24T10:12:46.837Z,22.88
2023-05-24T10:13:43.656Z,22.90
2023-05-24T10:14:40.161Z,22.32
2023-05-24T10:15:36.739Z,22.44
2023-05-24T10:16:33.604Z,22.09
2023-05-24T10:17:30.265Z,21.96
2023-05-24T10:18:26.950Z,22.03
2023-05-24T10:19:24.199Z,22.00
2023-05-24T10:20:21.293Z,22.24
2023-05-24T10:21:20.029Z,22.14
2023-05-24T10:22:17.188Z,22.17
2023-05-24T10:23:19.255Z,22.67
2023-05-24T10:24:19.820Z,23.05
2023-05-24T10:25:25.559Z,23.52
2023-05-24T10:26:26.277Z,24.32
2023-05-24T10:27:24.743Z,23.90
2023-05-24T10:28:22.691Z,23.98
2023-05-24T10:29:27.801Z,23.98
2023-05-24T10:30:41.825Z,24.05
2023-05-24T10:31:41.442Z,24.29
2023-05-24T10:32:39.412Z,24.68
2023-05-24T10:33:37.521Z,24.97
2023-05-24T10:34:34.491Z,24.19
2023-05-24T10:35:33.865Z,24.74
2023-05-24T10:36:30.701Z,25.16
2023-05-24T10:37:27.325Z,25.54
2023-05-24T10:38:25.035Z,25.68
2023-05-24T10:39:22.692Z,25.69
2023-05-24T10:40:20.904Z,26.05
2023-05-24T10:41:18.185Z,25.40
2023-05-24T10:42:14.754Z,25.64
2023-05-24T10:43:11.687Z,25.87
2023-05-24T10:44:13.263Z,25.78
2023-05-24T10:45:25.017Z,25.16
2023-05-24T10:46:22.815Z,25.10
2023-05-24T10:47:20.870Z,25.90
2023-05-24T10:48:17.733Z,25.76
2023-05-24T10:49:15.150Z,25.19
2023-05-24T10:50:22.243Z,26.21
2023-05-24T10:51:33.015Z,26.49
2023-05-24T10:52:36.312Z,26.61
2023-05-24T10:53:38.801Z,26.15
2023-05-24T10:54:39.979Z,25.82
2023-05-24T10:55:52.568Z,25.74
2023-05-24T10:56:50.488Z,25.56
2023-05-24T10:57:47.776Z,25.31
2023-05-24T10:58:48.848Z,25.66
2023-05-24T10:59:45.518Z,26.42
2023-05-24T11:00:44.590Z,25.10
2023-05-24T11:01:42.798Z,23.79
2023-05-24T11:02:39.436Z,23.66
2023-05-24T11:03:36.861Z,24.49
2023-05-24T11:04:36.704Z,25.05
2023-05-24T11:05:48.774Z,25.38
2023-05-24T11:06:55.872Z,25.59
2023-05-24T11:07:58.843Z,25.61
2023-05-24T11:09:00.067Z,25.37
2023-05-24T11:09:59.920Z,25.05
2023-05-24T11:11:26.670Z,25.09
2023-05-24T11:12:31.498Z,25.83
2023-05-24T11:13:28.056Z,25.92
2023-05-24T11:14:27.451Z,25.87
2023-05-24T11:15:24.360Z,25.93
2023-05-24T11:16:35.218Z,25.91
2023-05-24T11:17:51.773Z,25.68
2023-05-24T11:18:55.784Z,26.27
2023-05-24T11:19:55.656Z,26.47
2023-05-24T11:20:52.890Z,26.45
2023-05-24T11:21:51.024Z,25.81
2023-05-24T11:22:47.658Z,26.26
2023-05-24T11:23:44.327Z,26.70
2023-05-24T11:24:41.487Z,26.33
2023-05-24T11:25:38.843Z,26.76
2023-05-24T11:26:36.165Z,26.42
2023-05-24T11:27:35.440Z,26.77
2023-05-24T11:28:32.847Z,26.90
2023-05-24T11:29:30.086Z,25.66
2023-05-24T11:30:26.666Z,24.36
2023-05-24T11:31:27.230Z,25.04
2023-05-24T11:32:25.243Z,25.14
2023-05-24T11:33:25.606Z,25.81
2023-05-24T11:34:22.288Z,25.62
2023-05-24T11:35:19.453Z,25.44
2023-05-24T11:36:16.376Z,25.33
2023-05-24T11:37:14.573Z,25.66
2023-05-24T11:38:14.381Z,25.72
2023-05-24T11:39:10.905Z,25.07
2023-05-24T11:40:10.409Z,25.16
2023-05-24T11:41:07.642Z,25.37
2023-05-24T11:42:04.893Z,25.21
2023-05-24T11:43:01.551Z,25.23
2023-05-24T11:43:58.842Z,25.30
2023-05-24T11:44:55.740Z,24.96
2023-05-24T11:45:52.844Z,24.95
2023-05-24T11:46:49.624Z,25.01
2023-05-24T11:47:46.277Z,24.43
2023-05-24T11:48:42.779Z,24.68
2023-05-24T11:49:39.325Z,24.96
2023-05-24T11:50:54.132Z,24.75
2023-05-24T11:51:52.404Z,25.52
2023-05-24T11:52:48.947Z,25.52
2023-05-24T11:53:45.960Z,25.81
2023-05-24T11:54:42.539Z,26.06
2023-05-24T11:55:42.559Z,26.37
2023-05-24T11:56:39.208Z,25.59
2023-05-24T11:57:42.658Z,24.36
2023-05-24T11:58:48.434Z,24.01
2023-05-24T11:59:45.165Z,24.81
2023-05-24T12:00:42.646Z,24.87
2023-05-24T12:01:39.392Z,25.73
2023-05-24T12:02:36.329Z,25.99
2023-05-24T12:03:33.417Z,26.11
2023-05-24T12:04:30.965Z,26.69
2023-05-24T12:05:31.765Z,26.26
2023-05-24T12:06:44.630Z,25.35
2023-05-24T12:07:41.317Z,25.70
2023-05-24T12:08:38.327Z,26.24
2023-05-24T12:09:34.919Z,25.28
2023-05-24T12:10:34.892Z,25.30
2023-05-24T12:11:32.459Z,25.40
2023-05-24T12:12:34.292Z,25.90
2023-05-24T12:13:41.773Z,25.86
2023-05-24T12:14:38.558Z,25.94
2023-05-24T12:15:35.223Z,25.90
2023-05-24T12:16:33.423Z,25.14
2023-05-24T12:17:30.205Z,25.14
2023-05-24T12:18:26.932Z,25.22
2023-05-24T12:19:33.288Z,24.69
2023-05-24T12:20:30.502Z,25.37
2023-05-24T12:21:30.473Z,25.48
2023-05-24T12:22:28.366Z,25.52
2023-05-24T12:23:29.693Z,24.82
2023-05-24T12:24:27.110Z,23.66
2023-05-24T12:25:26.163Z,23.78
2023-05-24T12:26:23.279Z,23.80
2023-05-24T12:27:19.820Z,23.88
2023-05-24T12:28:19.659Z,23.15
2023-05-24T12:29:16.512Z,23.79
2023-05-24T12:30:18.819Z,23.75
2023-05-24T12:31:16.468Z,22.68
2023-05-24T12:32:14.329Z,22.94
2023-05-24T12:33:11.944Z,23.08
2023-05-24T12:34:12.821Z,22.93
2023-05-24T12:35:11.414Z,22.95